Accueil
METAR-TAF:

METAR-TAF

Aéroports :

Aérodrome de Payerne

Payerne, Suisse

latitude: 46-49N, longitude: 006-57E, altitude: 490 m

Observation

Le bulletin a été fait il y a 2 heures et 26 minutes, à 19:20 UTC
Vent 2 kt de direction variable
Température 3°C
Humidité 93%
Pression 1022 hPa
Visibilité: 2700 m
Nuages fragmentés à une hauteur de 200 ft
brume

METAR: LSMP 261920Z AUTO VRB02KT 2700NDV BR BKN002 03/02 Q1022 RMK

Heure: 22:46 (21:46 UTC)


TAF: absent

Observations et prévisions météorologiques de plus de 4000 aéroports (messages METAR et TAF).

Les stations disponibles sont représentées par des disques jaunes et rouges sur la carte.

Passer la souris dessus pour voir le nom de la station.

Cliquer dessus pour voir les observations et prévisions météorologiques.

Pour changer de carte: cliquez sur les boutons verts avec une croix noire pour zoomer, sur le bouton vert avec un tiret pour effectuer un zoom arrière, ou sur les flèches vertes pour les cartes adjacentes.


METAR-TAF: